createdAt,value
2023-04-13T00:00:54.160Z,55.65
2023-04-13T00:01:54.283Z,58.04
2023-04-13T00:02:54.649Z,57.64
2023-04-13T00:03:54.484Z,57.74
2023-04-13T00:04:54.516Z,57.74
2023-04-13T00:05:54.537Z,57.03
2023-04-13T00:09:47.637Z,57.74
2023-04-13T00:10:48.601Z,57.54
2023-04-13T00:11:48.665Z,56.12
2023-04-13T00:12:48.727Z,57.54
2023-04-13T00:13:48.777Z,57.84
2023-04-13T00:14:48.857Z,57.64
2023-04-13T00:15:48.883Z,57.64
2023-04-13T00:16:49.009Z,57.64
2023-04-13T00:17:49.063Z,57.43
2023-04-13T00:18:49.104Z,57.84
2023-04-13T00:19:49.189Z,57.84
2023-04-13T00:20:49.206Z,57.74
2023-04-13T00:21:49.270Z,57.84
2023-04-13T00:22:49.378Z,57.74
2023-04-13T00:23:49.354Z,57.64
2023-04-13T00:24:49.432Z,57.74
2023-04-13T00:25:49.435Z,57.54
2023-04-13T00:26:49.514Z,57.84
2023-04-13T00:27:49.584Z,57.64
2023-04-13T00:28:49.666Z,57.34
2023-04-13T00:29:49.718Z,57.64
2023-04-13T00:30:49.763Z,57.84
2023-04-13T00:31:49.794Z,57.43
2023-04-13T00:32:49.885Z,57.76
2023-04-13T00:33:49.927Z,57.36
2023-04-13T00:34:50.000Z,57.76
2023-04-13T00:35:50.058Z,57.46
2023-04-13T00:36:50.098Z,57.76
2023-04-13T00:37:50.153Z,57.36
2023-04-13T00:38:50.298Z,57.97
2023-04-13T00:39:50.284Z,57.97
2023-04-13T00:40:50.299Z,57.56
2023-04-13T00:41:50.367Z,57.67
2023-04-13T00:42:50.417Z,57.56
2023-04-13T00:43:50.471Z,57.67
2023-04-13T00:44:50.544Z,57.76
2023-04-13T00:45:50.632Z,57.67
2023-04-13T00:46:50.660Z,57.56
2023-04-13T00:47:51.055Z,57.76
2023-04-13T00:48:50.799Z,57.87
2023-04-13T00:49:50.885Z,57.76
2023-04-13T00:50:50.928Z,57.76
2023-04-13T00:51:51.001Z,57.76
2023-04-13T00:52:51.045Z,57.76
2023-04-13T00:53:51.120Z,57.97
2023-04-13T00:54:51.284Z,57.87
2023-04-13T00:55:51.212Z,57.87
2023-04-13T00:56:51.286Z,57.87
2023-04-13T00:57:51.359Z,57.97
2023-04-13T00:58:51.445Z,57.97
2023-04-13T00:59:51.502Z,57.87
2023-04-13T01:00:51.552Z,58.07
2023-04-13T01:01:51.672Z,58.17
2023-04-13T01:02:51.679Z,57.87
2023-04-13T01:03:51.725Z,57.36
2023-04-13T01:04:51.997Z,57.87
2023-04-13T01:05:51.837Z,57.76
2023-04-13T01:06:51.894Z,58.17
2023-04-13T01:07:51.935Z,58.17
2023-04-13T01:08:52.012Z,57.97
2023-04-13T01:09:52.098Z,58.17
2023-04-13T01:10:52.101Z,57.87
2023-04-13T01:11:52.190Z,57.79
2023-04-13T01:12:52.221Z,58.00
2023-04-13T01:13:52.282Z,58.30
2023-04-13T01:14:52.351Z,58.20
2023-04-13T01:15:52.489Z,58.27
2023-04-13T01:20:28.454Z,58.40
2023-04-13T01:21:29.550Z,58.40
2023-04-13T01:22:29.649Z,58.50
2023-04-13T01:23:29.643Z,57.59
2023-04-13T01:24:29.720Z,58.40
2023-04-13T01:25:29.812Z,58.40
2023-04-13T01:26:29.817Z,58.30
2023-04-13T01:27:29.892Z,58.09
2023-04-13T01:28:29.974Z,57.39
2023-04-13T01:29:30.053Z,58.09
2023-04-13T01:30:30.201Z,58.00
2023-04-13T01:31:30.209Z,58.20
2023-04-13T01:32:30.264Z,57.89
2023-04-13T01:33:30.387Z,58.30
2023-04-13T01:34:30.356Z,58.40
2023-04-13T01:35:30.457Z,58.30
2023-04-13T01:36:30.466Z,58.40
2023-04-13T01:37:30.540Z,58.30
2023-04-13T01:38:30.595Z,58.40
2023-04-13T01:39:30.681Z,58.40
2023-04-13T01:40:30.730Z,58.40
2023-04-13T01:41:30.885Z,58.30
2023-04-13T01:42:30.889Z,58.20
2023-04-13T01:43:30.982Z,58.40
2023-04-13T01:44:31.033Z,58.20
2023-04-13T01:45:31.124Z,58.00
2023-04-13T01:46:31.186Z,58.20
2023-04-13T01:47:31.229Z,58.30
2023-04-13T01:48:31.210Z,58.30
2023-04-13T01:49:31.334Z,57.59
2023-04-13T01:50:31.383Z,58.12
2023-04-13T01:51:31.419Z,58.43
2023-04-13T01:52:31.504Z,58.53
2023-04-13T01:53:31.514Z,58.43
2023-04-13T01:57:24.536Z,58.53
2023-04-13T01:58:25.603Z,58.53
2023-04-13T01:59:25.662Z,58.53
2023-04-13T02:00:25.737Z,58.63
2023-04-13T02:01:26.023Z,58.43
2023-04-13T02:02:26.025Z,58.63
2023-04-13T02:03:25.947Z,58.53
2023-04-13T02:04:26.078Z,58.43
2023-04-13T02:05:26.043Z,58.63
2023-04-13T02:06:26.107Z,58.63
2023-04-13T02:07:26.176Z,58.63
2023-04-13T02:08:26.193Z,58.53
2023-04-13T02:09:26.264Z,58.63
2023-04-13T02:10:26.317Z,58.73
2023-04-13T02:11:26.353Z,58.73
2023-04-13T02:12:26.437Z,58.73
2023-04-13T02:13:26.445Z,58.53
2023-04-13T02:14:26.527Z,58.73
2023-04-13T02:15:26.605Z,58.53
2023-04-13T02:16:26.749Z,58.73
2023-04-13T02:17:26.741Z,58.73
2023-04-13T02:18:26.803Z,58.73
2023-04-13T02:19:26.876Z,58.73
2023-04-13T02:20:26.887Z,58.12
2023-04-13T02:21:26.969Z,57.62
2023-04-13T02:22:26.996Z,58.63
2023-04-13T02:23:27.059Z,58.53
2023-04-13T02:24:27.115Z,58.63
2023-04-13T02:25:27.175Z,58.02
2023-04-13T02:26:27.286Z,57.92
2023-04-13T02:27:27.350Z,58.63
2023-04-13T02:28:27.361Z,58.73
2023-04-13T02:29:27.431Z,58.53
2023-04-13T02:30:27.486Z,58.83
2023-04-13T02:31:27.556Z,58.53
2023-04-13T02:32:35.134Z,58.33
2023-04-13T02:33:27.628Z,58.63
2023-04-13T02:34:27.676Z,58.43
2023-04-13T02:35:27.775Z,58.73
2023-04-13T02:36:27.835Z,58.23
2023-04-13T02:37:27.877Z,58.65
2023-04-13T02:38:27.973Z,58.73
2023-04-13T02:39:28.034Z,58.93
2023-04-13T02:40:28.140Z,58.25
2023-04-13T02:41:28.185Z,58.93
2023-04-13T02:42:28.249Z,58.73
2023-04-13T02:43:28.327Z,58.65
2023-04-13T02:44:28.352Z,58.56
2023-04-13T02:45:28.603Z,58.65
2023-04-13T02:46:30.038Z,58.63
2023-04-13T02:47:28.575Z,58.43
2023-04-13T02:48:28.555Z,58.43
2023-04-13T02:49:28.605Z,58.02
2023-04-13T02:50:28.661Z,58.53
2023-04-13T02:51:28.705Z,57.92
2023-04-13T02:52:28.767Z,57.72
2023-04-13T02:53:28.862Z,57.89
2023-04-13T02:54:28.872Z,57.69
2023-04-13T02:55:28.929Z,57.39
2023-04-13T02:56:28.992Z,57.09
2023-04-13T02:57:29.151Z,57.49
2023-04-13T02:58:29.108Z,57.79
2023-04-13T02:59:29.208Z,57.29
2023-04-13T03:00:29.197Z,57.39
2023-04-13T03:01:29.366Z,56.88
2023-04-13T03:02:29.396Z,57.26
2023-04-13T03:03:29.453Z,57.16
2023-04-13T03:04:29.436Z,57.46
2023-04-13T03:05:29.540Z,57.06
2023-04-13T03:06:29.546Z,56.85
2023-04-13T03:07:29.755Z,56.76
2023-04-13T03:08:29.768Z,56.45
2023-04-13T03:09:29.711Z,56.76
2023-04-13T03:13:22.766Z,55.32
2023-04-13T03:14:23.887Z,56.23
2023-04-13T03:15:23.885Z,56.02
2023-04-13T03:16:23.972Z,55.72
2023-04-13T03:17:24.027Z,56.23
2023-04-13T03:18:24.061Z,56.52
2023-04-13T03:19:24.159Z,55.79
2023-04-13T03:20:24.158Z,55.99
2023-04-13T03:21:24.225Z,56.10
2023-04-13T03:27:05.242Z,55.19
2023-04-13T03:28:06.307Z,54.99
2023-04-13T03:31:59.333Z,55.49
2023-04-13T03:33:00.548Z,55.39
2023-04-13T03:34:00.773Z,55.59
2023-04-13T03:35:00.496Z,55.90
2023-04-13T03:36:00.564Z,55.16
2023-04-13T03:39:53.566Z,55.06
2023-04-13T03:40:54.574Z,55.16
2023-04-13T03:42:00.854Z,54.86
2023-04-13T03:42:54.670Z,54.86
2023-04-13T03:43:54.718Z,53.85
2023-04-13T03:44:54.799Z,55.46
2023-04-13T03:45:54.951Z,55.57
2023-04-13T03:49:47.874Z,55.06
2023-04-13T03:50:48.948Z,54.96
2023-04-13T03:51:49.020Z,54.76
2023-04-13T03:52:49.074Z,54.46
2023-04-13T03:53:49.125Z,54.56
2023-04-13T03:54:49.261Z,54.16
2023-04-13T03:55:49.237Z,54.16
2023-04-13T03:56:49.293Z,54.94
2023-04-13T03:57:49.351Z,54.53
2023-04-13T03:58:49.404Z,54.33
2023-04-13T03:59:49.449Z,54.13
2023-04-13T04:00:49.514Z,54.33
2023-04-13T04:01:49.608Z,54.23
2023-04-13T04:02:49.815Z,53.72
2023-04-13T04:03:49.792Z,53.63
2023-04-13T04:04:49.846Z,53.22
2023-04-13T04:05:49.904Z,54.43
2023-04-13T04:06:49.882Z,54.23
2023-04-13T04:07:49.907Z,53.32
2023-04-13T04:08:49.962Z,53.32
2023-04-13T04:09:50.006Z,54.13
2023-04-13T04:10:50.053Z,53.63
2023-04-13T04:11:50.122Z,54.83
2023-04-13T04:12:50.173Z,53.22
2023-04-13T04:13:50.229Z,54.53
2023-04-13T04:14:50.277Z,54.03
2023-04-13T04:15:50.412Z,53.72
2023-04-13T04:16:50.692Z,54.23
2023-04-13T04:17:50.536Z,53.12
2023-04-13T04:18:50.565Z,53.72
2023-04-13T04:19:50.621Z,53.90
2023-04-13T04:20:50.704Z,52.92
2023-04-13T04:21:50.776Z,53.83
2023-04-13T04:22:50.850Z,51.61
2023-04-13T04:23:50.931Z,51.40
2023-04-13T04:24:51.044Z,53.63
2023-04-13T04:25:51.068Z,52.82
2023-04-13T04:26:51.079Z,53.32
2023-04-13T04:27:51.137Z,53.70
2023-04-13T04:28:51.208Z,52.22
2023-04-13T04:29:51.242Z,53.50
2023-04-13T04:30:51.317Z,53.20
2023-04-13T04:31:51.381Z,53.70
2023-04-13T04:32:51.448Z,53.09
2023-04-13T04:33:51.468Z,52.89
2023-04-13T04:34:51.540Z,50.60
2023-04-13T04:35:51.675Z,53.30
2023-04-13T04:36:51.682Z,53.80
2023-04-13T04:37:51.762Z,53.50
2023-04-13T04:38:51.816Z,53.40
2023-04-13T04:39:51.857Z,54.00
2023-04-13T04:40:51.925Z,50.57
2023-04-13T04:41:51.993Z,52.89
2023-04-13T04:42:52.074Z,53.30
2023-04-13T04:43:52.107Z,48.79
2023-04-13T04:44:52.154Z,48.28
2023-04-13T04:45:52.422Z,48.49
2023-04-13T04:46:52.277Z,53.92
2023-04-13T04:47:52.414Z,53.50
2023-04-13T04:48:52.417Z,54.21
2023-04-13T04:49:52.471Z,52.80
2023-04-13T04:50:52.565Z,53.00
2023-04-13T04:51:52.614Z,53.90
2023-04-13T04:52:52.659Z,50.88
2023-04-13T04:53:52.842Z,53.40
2023-04-13T04:54:52.756Z,52.80
2023-04-13T04:55:52.843Z,53.50
2023-04-13T04:56:52.961Z,53.09
2023-04-13T04:57:52.954Z,53.70
2023-04-13T04:58:53.000Z,53.20
2023-04-13T04:59:53.052Z,53.09
2023-04-13T05:00:53.173Z,53.50
2023-04-13T05:01:53.240Z,53.20
2023-04-13T05:02:53.495Z,52.69
2023-04-13T05:03:53.458Z,53.09
2023-04-13T05:04:53.469Z,52.87
2023-04-13T05:05:53.443Z,53.78
2023-04-13T05:06:53.507Z,53.58
2023-04-13T05:07:53.622Z,52.87
2023-04-13T05:08:53.603Z,53.78
2023-04-13T05:09:53.651Z,52.67
2023-04-13T05:10:53.744Z,53.67
2023-04-13T05:11:53.890Z,53.67
2023-04-13T05:12:53.825Z,53.27
2023-04-13T05:13:53.906Z,52.37
2023-04-13T05:14:54.019Z,53.27
2023-04-13T05:15:54.086Z,53.67
2023-04-13T05:16:54.083Z,53.38
2023-04-13T05:17:54.159Z,53.67
2023-04-13T05:18:54.212Z,52.57
2023-04-13T05:19:54.272Z,53.17
2023-04-13T05:23:47.292Z,50.35
2023-04-13T05:24:48.336Z,50.56
2023-04-13T05:25:48.395Z,52.26
2023-04-13T05:26:48.429Z,53.38
2023-04-13T05:27:48.509Z,52.37
2023-04-13T05:28:48.638Z,52.57
2023-04-13T05:29:48.601Z,52.57
2023-04-13T05:30:48.652Z,52.67
2023-04-13T05:31:48.765Z,50.85
2023-04-13T05:32:48.847Z,53.27
2023-04-13T05:33:48.905Z,51.36
2023-04-13T05:34:48.913Z,52.67
2023-04-13T05:35:48.971Z,52.17
2023-04-13T05:36:49.009Z,52.17
2023-04-13T05:37:49.069Z,52.34
2023-04-13T05:41:42.129Z,47.94
2023-04-13T05:42:43.172Z,51.76
2023-04-13T05:43:43.230Z,52.37
2023-04-13T05:44:43.299Z,51.06
2023-04-13T05:45:43.439Z,51.86
2023-04-13T05:46:43.457Z,52.17
2023-04-13T05:50:36.471Z,50.83
2023-04-13T05:51:37.686Z,53.05
2023-04-13T05:52:37.646Z,53.25
2023-04-13T05:53:37.718Z,47.11
2023-04-13T05:54:37.744Z,53.45
2023-04-13T05:55:37.796Z,52.24
2023-04-13T05:56:37.852Z,52.54
2023-04-13T05:57:38.060Z,52.94
2023-04-13T05:58:37.984Z,53.34
2023-04-13T05:59:38.034Z,52.94
2023-04-13T06:00:38.078Z,52.94
2023-04-13T06:01:38.190Z,50.13
2023-04-13T06:02:38.319Z,52.34
2023-04-13T06:06:31.201Z,52.44
2023-04-13T06:07:32.287Z,52.84
2023-04-13T06:08:32.483Z,52.44
2023-04-13T06:09:32.384Z,53.25
2023-04-13T06:10:32.436Z,53.25
2023-04-13T06:11:32.522Z,53.05
2023-04-13T06:12:32.582Z,51.73
2023-04-13T06:13:32.648Z,53.14
2023-04-13T06:14:32.704Z,51.54
2023-04-13T06:15:32.945Z,52.14
2023-04-13T06:16:33.061Z,53.25
2023-04-13T06:17:33.034Z,53.05
2023-04-13T06:18:32.940Z,52.92
2023-04-13T06:19:32.998Z,51.84
2023-04-13T06:20:33.093Z,50.33
2023-04-13T06:21:33.152Z,52.04
2023-04-13T06:22:33.224Z,52.54
2023-04-13T06:23:33.296Z,52.94
2023-04-13T06:24:33.322Z,52.92
2023-04-13T06:25:33.479Z,52.14
2023-04-13T06:26:33.425Z,53.12
2023-04-13T06:27:33.500Z,52.42
2023-04-13T06:28:33.613Z,51.93
2023-04-13T06:29:33.602Z,48.41
2023-04-13T06:30:33.694Z,48.21
2023-04-13T06:31:33.834Z,52.64
2023-04-13T06:32:33.817Z,52.84
2023-04-13T06:33:33.821Z,52.44
2023-04-13T06:34:33.910Z,53.02
2023-04-13T06:35:33.961Z,52.34
2023-04-13T06:36:34.000Z,52.62
2023-04-13T06:37:34.062Z,49.52
2023-04-13T06:38:34.138Z,52.34
2023-04-13T06:39:34.187Z,52.51
2023-04-13T06:40:34.255Z,52.51
2023-04-13T06:41:34.346Z,52.22
2023-04-13T06:42:34.372Z,53.02
2023-04-13T06:43:34.472Z,51.81
2023-04-13T06:44:34.542Z,52.34
2023-04-13T06:45:34.594Z,52.54
2023-04-13T06:46:34.719Z,52.92
2023-04-13T06:47:34.757Z,53.02
2023-04-13T06:48:34.814Z,53.02
2023-04-13T06:49:34.839Z,52.01
2023-04-13T06:50:34.890Z,51.93
2023-04-13T06:51:34.925Z,52.72
2023-04-13T06:52:34.995Z,52.51
2023-04-13T06:53:35.071Z,52.92
2023-04-13T06:54:35.132Z,52.92
2023-04-13T06:55:35.177Z,52.62
2023-04-13T06:56:35.243Z,52.22
2023-04-13T06:57:35.718Z,52.82
2023-04-13T06:58:35.349Z,52.72
2023-04-13T06:59:35.420Z,52.72
2023-04-13T07:00:35.502Z,52.82
2023-04-13T07:01:35.637Z,52.72
2023-04-13T07:02:35.770Z,52.92
2023-04-13T07:03:35.806Z,52.72
2023-04-13T07:04:35.850Z,52.42
2023-04-13T07:05:35.768Z,52.22
2023-04-13T07:06:35.842Z,52.82
2023-04-13T07:07:35.928Z,52.31
2023-04-13T07:08:35.960Z,52.31
2023-04-13T07:09:36.262Z,52.72
2023-04-13T07:10:36.080Z,52.92
2023-04-13T07:11:36.152Z,52.01
2023-04-13T07:12:36.224Z,51.81
2023-04-13T07:13:36.267Z,52.72
2023-04-13T07:14:36.325Z,52.82
2023-04-13T07:15:36.403Z,52.72
2023-04-13T07:16:36.483Z,52.72
2023-04-13T07:17:36.605Z,52.62
2023-04-13T07:18:36.601Z,52.82
2023-04-13T07:19:36.655Z,48.90
2023-04-13T07:20:36.821Z,52.22
2023-04-13T07:21:36.816Z,52.51
2023-04-13T07:22:36.885Z,52.31
2023-04-13T07:23:37.075Z,51.11
2023-04-13T07:24:36.998Z,48.19
2023-04-13T07:25:37.064Z,52.42
2023-04-13T07:26:37.159Z,52.42
2023-04-13T07:27:37.211Z,51.31
2023-04-13T07:28:37.308Z,52.72
2023-04-13T07:29:37.351Z,51.51
2023-04-13T07:30:37.421Z,52.42
2023-04-13T07:31:37.551Z,52.62
2023-04-13T07:32:37.585Z,51.81
2023-04-13T07:33:37.623Z,49.50
2023-04-13T07:34:37.720Z,52.72
2023-04-13T07:35:37.739Z,50.60
2023-04-13T07:36:37.788Z,50.40
2023-04-13T07:37:37.927Z,52.72
2023-04-13T07:38:37.938Z,51.61
2023-04-13T07:39:37.937Z,52.22
2023-04-13T07:40:37.989Z,52.42
2023-04-13T07:41:38.046Z,49.70
2023-04-13T07:42:38.169Z,52.72
2023-04-13T07:43:38.194Z,50.81
2023-04-13T07:44:38.210Z,51.81
2023-04-13T07:45:38.264Z,52.51
2023-04-13T07:46:38.328Z,52.11
2023-04-13T07:47:38.449Z,52.42
2023-04-13T07:48:38.466Z,51.71
2023-04-13T07:49:38.464Z,52.42
2023-04-13T07:50:38.515Z,52.62
2023-04-13T07:51:38.573Z,52.51
2023-04-13T07:52:38.622Z,52.82
2023-04-13T07:53:38.761Z,52.72
2023-04-13T07:54:38.741Z,52.69
2023-04-13T07:55:38.817Z,52.59
2023-04-13T07:56:38.878Z,52.51
2023-04-13T07:57:38.927Z,52.59
2023-04-13T07:58:39.028Z,52.19
2023-04-13T07:59:39.032Z,52.69
2023-04-13T08:00:39.084Z,52.59
2023-04-13T08:01:39.144Z,52.49
2023-04-13T08:02:39.497Z,52.51
2023-04-13T08:03:39.489Z,52.49
2023-04-13T08:04:39.490Z,52.69
2023-04-13T08:05:39.346Z,52.80
2023-04-13T08:06:39.394Z,52.80
2023-04-13T08:07:39.449Z,52.49
2023-04-13T08:08:39.665Z,52.49
2023-04-13T08:09:39.619Z,52.69
2023-04-13T08:10:39.659Z,52.59
2023-04-13T08:11:39.757Z,52.29
2023-04-13T08:12:39.750Z,48.49
2023-04-13T08:13:39.867Z,51.59
2023-04-13T08:14:39.878Z,43.87
2023-04-13T08:15:39.954Z,47.99
2023-04-13T08:16:40.094Z,47.79
2023-04-13T08:17:40.102Z,49.10
2023-04-13T08:18:40.136Z,52.01
2023-04-13T08:19:40.181Z,50.31
2023-04-13T08:20:40.253Z,52.01
2023-04-13T08:21:40.299Z,48.79
2023-04-13T08:22:40.377Z,52.01
2023-04-13T08:23:40.459Z,50.00
2023-04-13T08:24:40.609Z,51.99
2023-04-13T08:25:40.575Z,48.09
2023-04-13T08:26:40.661Z,51.71
2023-04-13T08:27:40.686Z,48.47
2023-04-13T08:28:40.736Z,51.49
2023-04-13T08:29:40.802Z,51.99
2023-04-13T08:30:40.931Z,50.98
2023-04-13T08:31:40.934Z,51.99
2023-04-13T08:32:41.062Z,52.19
2023-04-13T08:33:41.030Z,51.99
2023-04-13T08:34:41.117Z,50.68
2023-04-13T08:35:41.173Z,52.19
2023-04-13T08:36:41.238Z,50.58
2023-04-13T08:37:41.288Z,51.89
2023-04-13T08:38:41.425Z,49.37
2023-04-13T08:39:41.440Z,50.98
2023-04-13T08:40:41.450Z,51.97
2023-04-13T08:41:42.049Z,51.76
2023-04-13T08:42:41.642Z,51.66
2023-04-13T08:43:41.660Z,51.56
2023-04-13T08:44:41.676Z,51.86
2023-04-13T08:45:41.753Z,51.36
2023-04-13T08:46:41.807Z,51.66
2023-04-13T08:47:41.866Z,51.56
2023-04-13T08:48:52.929Z,50.05
2023-04-13T08:49:41.977Z,51.56
2023-04-13T08:50:42.045Z,51.54
2023-04-13T08:51:42.150Z,51.24
2023-04-13T08:52:42.134Z,49.83
2023-04-13T08:53:42.196Z,49.25
2023-04-13T08:54:42.259Z,45.73
2023-04-13T08:55:42.313Z,45.53
2023-04-13T08:56:46.677Z,50.96
2023-04-13T08:57:42.438Z,50.66
2023-04-13T08:58:42.503Z,51.16
2023-04-13T08:59:42.564Z,51.44
2023-04-13T09:00:42.636Z,47.22
2023-04-13T09:01:42.782Z,46.03
2023-04-13T09:02:56.070Z,48.65
2023-04-13T09:03:43.006Z,50.96
2023-04-13T09:04:42.954Z,45.13
2023-04-13T09:05:42.943Z,44.32
2023-04-13T09:06:43.005Z,42.72
2023-04-13T09:07:43.068Z,50.76
2023-04-13T09:08:43.158Z,51.26
2023-04-13T09:09:43.173Z,51.14
2023-04-13T09:10:43.245Z,51.24
2023-04-13T09:11:43.527Z,50.93
2023-04-13T09:12:43.479Z,51.14
2023-04-13T09:13:43.449Z,51.34
2023-04-13T09:14:43.501Z,47.72
2023-04-13T09:15:43.581Z,51.14
2023-04-13T09:16:43.694Z,51.04
2023-04-13T09:17:43.757Z,45.23
2023-04-13T09:18:43.787Z,46.64
2023-04-13T09:19:43.840Z,44.32
2023-04-13T09:20:43.938Z,51.06
2023-04-13T09:21:44.044Z,50.73
2023-04-13T09:22:44.057Z,50.73
2023-04-13T09:23:44.320Z,50.84
2023-04-13T09:24:44.256Z,51.24
2023-04-13T09:25:44.257Z,51.24
2023-04-13T09:26:44.284Z,51.14
2023-04-13T09:27:44.344Z,51.04
2023-04-13T09:28:44.476Z,51.04
2023-04-13T09:29:44.457Z,48.65
2023-04-13T09:30:44.556Z,51.24
2023-04-13T09:31:45.699Z,50.63
2023-04-13T09:32:44.716Z,43.02
2023-04-13T09:33:44.713Z,49.35
2023-04-13T09:34:44.788Z,50.46
2023-04-13T09:35:44.812Z,50.56
2023-04-13T09:36:54.161Z,50.05
2023-04-13T09:37:44.937Z,49.05
2023-04-13T09:38:45.060Z,50.93
2023-04-13T09:39:45.040Z,51.14
2023-04-13T09:40:45.114Z,51.14
2023-04-13T09:41:45.177Z,51.04
2023-04-13T09:42:45.245Z,49.43
2023-04-13T09:43:45.339Z,49.22
2023-04-13T09:44:45.390Z,50.43
2023-04-13T09:45:45.397Z,49.53
2023-04-13T09:46:45.499Z,49.53
2023-04-13T09:47:45.579Z,50.84
2023-04-13T09:48:45.695Z,50.71
2023-04-13T09:49:47.193Z,50.51
2023-04-13T09:50:45.697Z,50.61
2023-04-13T09:51:46.029Z,50.01
2023-04-13T09:52:45.837Z,50.71
2023-04-13T09:53:45.921Z,44.71
2023-04-13T09:54:47.109Z,45.61
2023-04-13T09:55:46.022Z,42.80
2023-04-13T09:56:46.081Z,50.03
2023-04-13T09:57:46.172Z,50.13
2023-04-13T09:58:48.790Z,50.13
2023-04-13T09:59:46.241Z,50.84
2023-04-13T10:00:46.352Z,50.93
2023-04-13T10:01:46.479Z,51.04
2023-04-13T10:02:46.639Z,50.33
2023-04-13T10:03:46.525Z,50.73
2023-04-13T10:04:46.648Z,50.63
2023-04-13T10:05:58.571Z,50.84
2023-04-13T10:07:07.816Z,50.63
2023-04-13T10:07:46.804Z,51.04
2023-04-13T10:08:46.918Z,51.04
2023-04-13T10:09:46.895Z,50.53
2023-04-13T10:10:48.266Z,51.04
2023-04-13T10:11:47.029Z,50.84
2023-04-13T10:12:47.080Z,50.93
2023-04-13T10:13:47.145Z,50.53
2023-04-13T10:14:47.230Z,51.14
2023-04-13T10:15:47.315Z,50.53
2023-04-13T10:16:47.479Z,50.43
2023-04-13T10:17:47.431Z,48.93
2023-04-13T10:18:47.507Z,49.91
2023-04-13T10:19:47.579Z,50.11
2023-04-13T10:20:47.608Z,50.38
2023-04-13T10:21:47.785Z,50.46
2023-04-13T10:22:47.724Z,50.26
2023-04-13T10:23:47.761Z,50.26
2023-04-13T10:24:47.817Z,49.93
2023-04-13T10:25:47.883Z,49.54
2023-04-13T10:26:47.951Z,46.70
2023-04-13T10:27:47.998Z,44.90
2023-04-13T10:28:48.052Z,42.90
2023-04-13T10:29:48.171Z,48.41
2023-04-13T10:30:48.181Z,47.31
2023-04-13T10:31:48.348Z,43.90
2023-04-13T10:32:48.436Z,44.40
2023-04-13T10:33:48.374Z,41.79
2023-04-13T10:34:48.470Z,44.68
2023-04-13T10:35:48.483Z,38.68
2023-04-13T10:36:48.538Z,40.29
2023-04-13T10:37:48.633Z,39.89
2023-04-13T10:38:48.673Z,46.38
2023-04-13T10:39:48.997Z,40.67
2023-04-13T10:40:48.898Z,45.16
2023-04-13T10:41:48.809Z,44.46
2023-04-13T10:42:52.921Z,46.96
2023-04-13T10:43:48.925Z,42.55
2023-04-13T10:44:49.033Z,40.15
2023-04-13T10:45:49.020Z,47.36
2023-04-13T10:46:49.133Z,44.46
2023-04-13T10:47:49.281Z,45.06
2023-04-13T10:48:49.247Z,46.54
2023-04-13T10:52:42.286Z,45.26
2023-04-13T10:53:43.305Z,46.66
2023-04-13T10:54:43.375Z,45.64
2023-04-13T10:55:43.421Z,47.14
2023-04-13T10:56:43.519Z,46.84
2023-04-13T10:57:43.567Z,46.24
2023-04-13T10:58:43.570Z,43.63
2023-04-13T11:00:46.382Z,46.14
2023-04-13T11:01:43.762Z,41.13
2023-04-13T11:02:43.997Z,46.54
2023-04-13T11:03:53.354Z,44.74
2023-04-13T11:06:31.921Z,47.96
2023-04-13T11:07:32.944Z,47.86
2023-04-13T11:08:33.063Z,47.96
2023-04-13T11:09:33.361Z,47.66
2023-04-13T11:10:33.155Z,48.04
2023-04-13T11:11:33.694Z,46.54
2023-04-13T11:12:33.263Z,47.24
2023-04-13T11:13:33.334Z,47.84
2023-04-13T11:17:26.564Z,47.84
2023-04-13T11:18:27.445Z,48.57
2023-04-13T11:19:27.530Z,48.57
2023-04-13T11:20:27.559Z,48.57
2023-04-13T11:21:27.600Z,48.36
2023-04-13T11:22:27.986Z,47.16
2023-04-13T11:23:27.767Z,48.76
2023-04-13T11:24:27.843Z,48.36
2023-04-13T11:25:27.893Z,48.57
2023-04-13T11:26:27.946Z,48.16
2023-04-13T11:27:28.037Z,48.57
2023-04-13T11:28:28.094Z,48.76
2023-04-13T11:29:28.181Z,48.76
2023-04-13T11:30:28.236Z,48.57
2023-04-13T11:31:28.282Z,48.66
2023-04-13T11:32:28.380Z,48.76
2023-04-13T11:33:28.592Z,48.46
2023-04-13T11:34:28.575Z,48.57
2023-04-13T11:35:28.531Z,48.57
2023-04-13T11:36:28.619Z,48.58
2023-04-13T11:37:28.632Z,48.89
2023-04-13T11:38:28.700Z,48.79
2023-04-13T11:39:28.756Z,49.08
2023-04-13T11:40:28.796Z,48.79
2023-04-13T11:41:28.853Z,48.49
2023-04-13T11:42:28.909Z,48.79
2023-04-13T11:43:28.949Z,48.69
2023-04-13T11:44:29.054Z,48.69
2023-04-13T11:45:29.105Z,48.69
2023-04-13T11:46:29.201Z,48.69
2023-04-13T11:47:29.286Z,48.91
2023-04-13T11:48:29.278Z,49.11
2023-04-13T11:49:29.397Z,49.41
2023-04-13T11:50:29.367Z,49.21
2023-04-13T11:51:29.444Z,49.21
2023-04-13T11:52:29.679Z,49.21
2023-04-13T11:53:29.531Z,48.91
2023-04-13T11:54:29.672Z,49.01
2023-04-13T11:55:31.347Z,48.81
2023-04-13T11:56:29.749Z,48.71
2023-04-13T11:57:29.805Z,49.01
2023-04-13T11:58:29.968Z,48.51
2023-04-13T11:59:29.980Z,49.51
2023-04-13T12:00:30.003Z,49.63
2023-04-13T12:01:34.196Z,49.11
2023-04-13T12:02:33.440Z,49.61
2023-04-13T12:03:42.014Z,49.63
2023-04-13T12:04:30.561Z,49.43
2023-04-13T12:05:30.536Z,49.63
2023-04-13T12:06:30.855Z,49.43
2023-04-13T12:07:31.030Z,49.23
2023-04-13T12:08:30.762Z,49.54
2023-04-13T12:09:54.051Z,49.33
2023-04-13T12:10:39.511Z,49.43
2023-04-13T12:12:51.416Z,49.74
2023-04-13T12:14:50.229Z,49.63
2023-04-13T12:15:43.683Z,49.84
2023-04-13T12:17:01.581Z,50.04
2023-04-13T12:17:39.359Z,50.04
2023-04-13T12:18:36.682Z,50.04
2023-04-13T12:19:32.964Z,50.13
2023-04-13T12:20:31.366Z,50.13
2023-04-13T12:21:31.586Z,50.06
2023-04-13T12:22:35.732Z,50.04
2023-04-13T12:23:31.522Z,50.26
2023-04-13T12:24:32.738Z,50.26
2023-04-13T12:27:09.946Z,50.26
2023-04-13T12:27:31.769Z,50.46
2023-04-13T12:28:34.123Z,50.36
2023-04-13T12:29:31.947Z,50.46
2023-04-13T12:30:31.959Z,50.26
2023-04-13T12:31:32.010Z,50.26
2023-04-13T12:32:32.011Z,50.36
2023-04-13T12:33:32.301Z,50.36
2023-04-13T12:34:32.154Z,50.76
2023-04-13T12:35:32.243Z,50.46
2023-04-13T12:36:32.294Z,50.66
2023-04-13T12:37:32.368Z,50.46
2023-04-13T12:38:33.149Z,50.66
2023-04-13T12:39:32.499Z,50.86
2023-04-13T12:40:32.512Z,50.56
2023-04-13T12:41:32.609Z,50.26
2023-04-13T12:42:32.661Z,50.26
2023-04-13T12:43:32.763Z,50.36
2023-04-13T12:44:34.290Z,50.99
2023-04-13T12:45:32.823Z,50.89
2023-04-13T12:46:32.894Z,50.68
2023-04-13T12:47:33.053Z,50.89
2023-04-13T12:48:32.993Z,50.79
2023-04-13T12:49:33.084Z,50.89
2023-04-13T12:50:33.762Z,50.89
2023-04-13T12:51:33.211Z,50.99
2023-04-13T12:52:33.270Z,50.99
2023-04-13T12:53:33.330Z,51.09
2023-04-13T12:54:33.408Z,50.79
2023-04-13T12:55:33.456Z,50.59
2023-04-13T12:56:33.729Z,48.58
2023-04-13T12:57:33.606Z,48.70
2023-04-13T12:58:33.642Z,49.91
2023-04-13T12:59:33.710Z,49.91
2023-04-13T13:00:33.776Z,50.21
2023-04-13T13:01:33.870Z,50.11
2023-04-13T13:02:33.907Z,50.51
2023-04-13T13:03:34.026Z,50.31
2023-04-13T13:04:34.053Z,50.51
2023-04-13T13:05:34.038Z,50.31
2023-04-13T13:06:34.400Z,50.51
2023-04-13T13:07:34.180Z,50.41
2023-04-13T13:08:36.730Z,50.31
2023-04-13T13:09:34.312Z,50.21
2023-04-13T13:10:34.353Z,49.80
2023-04-13T13:11:34.457Z,50.11
2023-04-13T13:12:34.545Z,50.31
2023-04-13T13:13:34.559Z,50.31
2023-04-13T13:14:37.387Z,50.31
2023-04-13T13:15:34.683Z,50.11
2023-04-13T13:16:34.806Z,50.51
2023-04-13T13:17:34.802Z,49.30
2023-04-13T13:18:49.102Z,50.21
2023-04-13T13:19:34.971Z,50.41
2023-04-13T13:20:34.994Z,50.31
2023-04-13T13:21:35.049Z,50.41
2023-04-13T13:22:35.198Z,50.61
2023-04-13T13:23:35.254Z,50.41
2023-04-13T13:24:35.244Z,50.61
2023-04-13T13:25:35.707Z,50.91
2023-04-13T13:26:47.101Z,50.61
2023-04-13T13:28:35.462Z,50.81
2023-04-13T13:29:35.533Z,50.51
2023-04-13T13:30:35.649Z,50.61
2023-04-13T13:31:35.736Z,50.41
2023-04-13T13:32:35.841Z,50.51
2023-04-13T13:33:35.785Z,50.61
2023-04-13T13:34:35.871Z,50.51
2023-04-13T13:35:35.972Z,50.63
2023-04-13T13:36:35.985Z,50.84
2023-04-13T13:37:36.032Z,50.73
2023-04-13T13:38:36.848Z,51.04
2023-04-13T13:39:36.137Z,50.73
2023-04-13T13:40:36.232Z,50.73
2023-04-13T13:41:36.288Z,50.84
2023-04-13T13:42:48.243Z,50.63
2023-04-13T13:43:36.418Z,50.13